Time;durP1;ratioP1;P1;durP2;ratioP2;P2;SDS_P1;SDS_P2;PMS_P1;PMS_P2;Temp;Humidity;BMP_temperature;BMP_pressure;BME280_temperature;BME280_humidity;BME280_pressure;Samples;Min_cycle;Max_cycle;Signal;HPM_P1;HPM_P2
2023/09/10 00:01:03;;;;;;;22.80;11.43;;;17.30;99.90;;;;;;5084022;28;20055;-78
2023/09/10 00:03:29;;;;;;;18.55;10.88;;;17.20;99.90;;;;;;5086415;28;20113;-77
2023/09/10 00:05:55;;;;;;;20.90;11.07;;;17.20;99.90;;;;;;5086173;28;20051;-77
2023/09/10 00:08:20;;;;;;;21.65;11.32;;;17.20;99.90;;;;;;5086147;28;20102;-76
2023/09/10 00:10:46;;;;;;;20.02;11.00;;;17.20;99.90;;;;;;5086393;28;20035;-78
2023/09/10 00:13:12;;;;;;;22.25;11.70;;;17.30;99.90;;;;;;5086172;28;20533;-78
2023/09/10 00:15:38;;;;;;;28.17;12.32;;;17.40;99.90;;;;;;5085885;28;20024;-76
2023/09/10 00:18:04;;;;;;;21.85;12.43;;;17.50;99.90;;;;;;5087352;28;20032;-79
2023/09/10 00:20:29;;;;;;;21.15;12.05;;;17.50;99.90;;;;;;5063700;28;20035;-78
2023/09/10 00:22:56;;;;;;;22.20;12.90;;;17.50;99.90;;;;;;5085778;28;20029;-77
2023/09/10 00:25:22;;;;;;;18.45;11.85;;;17.40;99.90;;;;;;5085771;28;20028;-79
2023/09/10 00:27:47;;;;;;;20.23;11.77;;;17.30;99.90;;;;;;5087241;28;20032;-77
2023/09/10 00:30:13;;;;;;;23.13;12.27;;;17.20;99.90;;;;;;5087471;28;20028;-79
2023/09/10 00:32:39;;;;;;;20.85;11.95;;;17.20;99.90;;;;;;5087203;28;20179;-77
2023/09/10 00:35:05;;;;;;;20.20;11.88;;;17.20;99.90;;;;;;5086393;28;20457;-79
2023/09/10 00:37:30;;;;;;;18.38;11.63;;;17.30;99.90;;;;;;5081373;28;20465;-79
2023/09/10 00:39:56;;;;;;;20.05;11.20;;;17.30;99.90;;;;;;5086292;28;20032;-79
2023/09/10 00:42:22;;;;;;;20.67;10.98;;;17.30;99.90;;;;;;5086054;28;20032;-77
2023/09/10 00:44:48;;;;;;;28.30;11.82;;;17.30;99.90;;;;;;5087237;28;20107;-79
2023/09/10 00:47:14;;;;;;;18.02;11.15;;;17.30;99.90;;;;;;5085677;28;20151;-79
2023/09/10 00:49:40;;;;;;;21.25;11.27;;;17.30;99.90;;;;;;5068267;28;20040;-78
2023/09/10 00:52:06;;;;;;;23.75;11.82;;;17.30;99.90;;;;;;5087494;28;20040;-78
2023/09/10 00:54:34;;;;;;;22.45;12.02;;;17.30;99.90;;;;;;5085559;28;20106;-79
2023/09/10 00:57:03;;;;;;;16.90;11.20;;;17.20;99.90;;;;;;5081933;28;20043;-79
2023/09/10 00:59:30;;;;;;;25.60;11.75;;;17.20;99.90;;;;;;5087527;28;20034;-78
2023/09/10 01:01:57;;;;;;;20.38;11.75;;;17.00;99.90;;;;;;5085937;28;20139;-78
2023/09/10 01:04:23;;;;;;;21.27;11.60;;;16.90;99.90;;;;;;5083648;28;20114;-78
2023/09/10 01:06:51;;;;;;;24.02;12.27;;;16.90;99.90;;;;;;5085315;28;20131;-79
2023/09/10 01:09:17;;;;;;;24.88;12.80;;;16.90;99.90;;;;;;5080773;28;20035;-79
2023/09/10 01:11:51;;;;;;;21.85;11.93;;;16.90;99.90;;;;;;5084692;28;20032;-79
2023/09/10 01:14:40;;;;;;;23.10;12.60;;;16.90;99.90;;;;;;5084583;28;20384;-78
2023/09/10 01:17:26;;;;;;;17.40;11.30;;;17.00;99.90;;;;;;5086727;28;20039;-79
2023/09/10 01:19:52;;;;;;;22.98;12.25;;;16.90;99.90;;;;;;5081962;28;20039;-77
2023/09/10 01:22:43;;;;;;;20.75;12.45;;;16.90;99.90;;;;;;5084396;28;20465;-77
2023/09/10 01:25:09;;;;;;;19.75;11.75;;;16.90;99.90;;;;;;5086100;28;20062;-78
2023/09/10 01:27:35;;;;;;;22.98;12.38;;;16.90;99.90;;;;;;5065856;28;20071;-77
2023/09/10 01:30:01;;;;;;;19.40;11.43;;;16.90;99.90;;;;;;5083338;28;20044;-77
2023/09/10 01:32:48;;;;;;;17.83;11.60;;;16.80;99.90;;;;;;5084898;28;20347;-77
2023/09/10 01:35:20;;;;;;;18.85;10.90;;;16.80;99.90;;;;;;5079629;28;20031;-77
2023/09/10 01:37:59;;;;;;;21.75;10.88;;;16.70;99.90;;;;;;5078390;28;20078;-78
2023/09/10 01:40:44;;;;;;;21.23;11.13;;;16.70;99.90;;;;;;5065724;28;20039;-77
2023/09/10 01:43:10;;;;;;;18.75;10.82;;;16.60;99.90;;;;;;5080923;28;20036;-77
2023/09/10 01:45:36;;;;;;;19.27;11.30;;;16.50;99.90;;;;;;5081703;28;20032;-77
2023/09/10 01:48:03;;;;;;;21.23;11.68;;;16.50;99.90;;;;;;5084950;28;20052;-77
2023/09/10 01:50:29;;;;;;;19.77;11.27;;;16.60;99.90;;;;;;5080430;28;20116;-78
2023/09/10 01:52:58;;;;;;;17.45;10.75;;;16.50;99.90;;;;;;5085490;28;20024;-78
2023/09/10 01:55:24;;;;;;;19.58;11.07;;;16.60;99.90;;;;;;5066926;28;20025;-77
2023/09/10 01:57:49;;;;;;;18.73;11.95;;;16.60;99.90;;;;;;5086063;28;20047;-77
2023/09/10 02:00:15;;;;;;;19.77;11.73;;;16.60;99.90;;;;;;5063747;28;20036;-78
2023/09/10 02:02:41;;;;;;;19.98;12.73;;;16.50;99.90;;;;;;5085307;28;20805;-78
2023/09/10 02:05:07;;;;;;;25.10;13.52;;;16.50;99.90;;;;;;5067047;28;20036;-78
2023/09/10 02:07:33;;;;;;;21.13;12.00;;;16.40;99.90;;;;;;5084451;28;20050;-78
2023/09/10 02:09:59;;;;;;;23.52;12.90;;;16.40;99.90;;;;;;5066448;28;20463;-77
2023/09/10 02:12:25;;;;;;;21.98;12.95;;;16.40;99.90;;;;;;5082592;28;20043;-78
2023/09/10 02:14:51;;;;;;;23.88;12.30;;;16.50;99.90;;;;;;5086465;28;20028;-79
2023/09/10 02:17:16;;;;;;;19.85;11.93;;;16.50;99.90;;;;;;5087141;28;20028;-79
2023/09/10 02:19:42;;;;;;;19.42;11.82;;;16.50;99.90;;;;;;5085294;28;20032;-78
2023/09/10 02:22:08;;;;;;;22.25;12.18;;;16.50;99.90;;;;;;5087847;28;20089;-78
2023/09/10 02:24:33;;;;;;;23.92;11.75;;;16.50;99.90;;;;;;5087412;28;20465;-77
2023/09/10 02:26:59;;;;;;;24.15;11.23;;;16.50;99.90;;;;;;5087059;28;20063;-77
2023/09/10 02:29:24;;;;;;;30.20;12.52;;;16.40;99.90;;;;;;5068365;28;20031;-78
2023/09/10 02:31:50;;;;;;;19.65;11.18;;;16.40;99.90;;;;;;5075571;28;20027;-78
2023/09/10 02:34:16;;;;;;;23.55;11.93;;;16.40;99.90;;;;;;5086995;28;20469;-78
2023/09/10 02:36:41;;;;;;;19.17;10.57;;;16.30;99.90;;;;;;5086497;28;20028;-78
2023/09/10 02:39:07;;;;;;;16.73;10.27;;;16.20;99.90;;;;;;5089961;28;20020;-78
2023/09/10 02:41:32;;;;;;;16.35;9.93;;;16.20;99.90;;;;;;5088750;28;20063;-78
2023/09/10 02:43:58;;;;;;;21.77;10.90;;;16.20;99.90;;;;;;5090612;28;20066;-77
2023/09/10 02:46:25;;;;;;;19.58;10.75;;;16.20;99.90;;;;;;5088782;28;20036;-77
2023/09/10 02:48:50;;;;;;;18.65;10.57;;;16.20;99.90;;;;;;5089639;28;20089;-77
2023/09/10 02:51:16;;;;;;;18.90;11.02;;;16.20;99.90;;;;;;5088960;28;20028;-77
2023/09/10 02:53:42;;;;;;;19.48;11.38;;;16.20;99.90;;;;;;5069839;28;20028;-77
2023/09/10 02:56:07;;;;;;;18.55;9.82;;;16.10;99.90;;;;;;5090780;28;20028;-77
2023/09/10 02:58:33;;;;;;;21.30;9.75;;;16.10;99.90;;;;;;5089844;28;20524;-76
2023/09/10 03:01:06;;;;;;;29.20;11.30;;;16.00;99.90;;;;;;5088242;28;20123;-79
2023/09/10 03:03:33;;;;;;;18.15;11.18;;;15.90;99.90;;;;;;5087385;28;20035;-77
2023/09/10 03:05:58;;;;;;;19.88;11.35;;;15.80;99.90;;;;;;5079657;28;21058;-77
2023/09/10 03:08:24;;;;;;;22.52;11.68;;;15.80;99.90;;;;;;5080926;28;20028;-79
2023/09/10 03:10:50;;;;;;;18.77;11.07;;;15.80;99.90;;;;;;5083198;28;20584;-78
2023/09/10 03:13:15;;;;;;;19.48;11.65;;;15.80;99.90;;;;;;5088913;28;20103;-77
2023/09/10 03:15:41;;;;;;;19.15;11.65;;;15.80;99.90;;;;;;5086317;28;20060;-78
2023/09/10 03:18:06;;;;;;;18.13;11.70;;;15.70;99.90;;;;;;5087797;28;20028;-79
2023/09/10 03:20:32;;;;;;;25.30;11.50;;;15.70;99.90;;;;;;5082236;28;20074;-76
2023/09/10 03:22:59;;;;;;;21.13;11.27;;;15.70;99.90;;;;;;5083694;28;20074;-78
2023/09/10 03:25:26;;;;;;;25.02;12.25;;;15.70;99.90;;;;;;5082548;28;21602;-77
2023/09/10 03:27:51;;;;;;;18.23;10.80;;;15.70;99.90;;;;;;5088335;28;20622;-77
2023/09/10 03:30:17;;;;;;;19.60;10.48;;;15.70;99.90;;;;;;5085878;28;20042;-79
2023/09/10 03:32:43;;;;;;;19.33;11.38;;;15.70;99.90;;;;;;5085956;28;20040;-76
2023/09/10 03:35:11;;;;;;;25.17;11.30;;;15.70;99.90;;;;;;5081939;28;20476;-78
2023/09/10 03:37:36;;;;;;;22.48;12.45;;;15.70;99.90;;;;;;5084245;28;20024;-77
2023/09/10 03:40:05;;;;;;;22.98;12.63;;;15.80;99.90;;;;;;5083602;28;20373;-78
2023/09/10 03:42:33;;;;;;;20.10;11.63;;;15.80;99.90;;;;;;5086172;28;20032;-78
2023/09/10 03:44:59;;;;;;;18.13;11.88;;;15.80;99.90;;;;;;5087574;28;20082;-78
2023/09/10 03:47:28;;;;;;;17.98;11.18;;;15.60;99.90;;;;;;5086037;28;20056;-78
2023/09/10 03:49:53;;;;;;;19.58;11.82;;;15.50;99.90;;;;;;5085755;28;20020;-78
2023/09/10 03:52:21;;;;;;;28.65;13.25;;;15.50;99.90;;;;;;5083279;28;20082;-76
2023/09/10 03:54:47;;;;;;;22.45;11.95;;;15.50;99.90;;;;;;5086733;28;20093;-77
2023/09/10 03:57:13;;;;;;;22.40;12.95;;;15.50;99.90;;;;;;5086997;28;20067;-78
2023/09/10 03:59:39;;;;;;;22.17;12.38;;;15.60;99.90;;;;;;5077838;28;20116;-79
2023/09/10 04:02:05;;;;;;;25.50;13.55;;;15.60;99.90;;;;;;5065660;28;20451;-77
2023/09/10 04:04:31;;;;;;;21.08;12.93;;;15.70;99.90;;;;;;5085938;28;20292;-78
2023/09/10 04:06:57;;;;;;;21.92;12.18;;;15.80;99.90;;;;;;5085739;28;20032;-78
2023/09/10 04:09:23;;;;;;;20.58;11.90;;;15.80;99.90;;;;;;5080948;28;20028;-78
2023/09/10 04:11:49;;;;;;;18.98;11.43;;;15.70;99.90;;;;;;5078032;28;20024;-78
2023/09/10 04:14:14;;;;;;;22.25;12.00;;;15.70;99.90;;;;;;5088236;28;20520;-79
2023/09/10 04:16:40;;;;;;;20.20;11.65;;;15.70;99.90;;;;;;5085504;28;20020;-79
2023/09/10 04:19:06;;;;;;;19.65;11.02;;;15.70;99.90;;;;;;5084569;28;20043;-79
2023/09/10 04:21:31;;;;;;;20.40;11.00;;;15.60;99.90;;;;;;5068190;28;20042;-78
2023/09/10 04:23:57;;;;;;;26.73;11.60;;;15.60;99.90;;;;;;5081908;28;20040;-78
2023/09/10 04:26:23;;;;;;;24.23;12.65;;;15.60;99.90;;;;;;5085434;28;20055;-79
2023/09/10 04:28:48;;;;;;;23.02;12.15;;;15.50;99.90;;;;;;5083673;28;20020;-79
2023/09/10 04:31:16;;;;;;;24.02;12.20;;;15.60;99.90;;;;;;5079655;28;20459;-78
2023/09/10 04:33:42;;;;;;;21.45;12.23;;;15.60;99.90;;;;;;5078604;28;20047;-78
2023/09/10 04:36:08;;;;;;;20.25;11.60;;;15.60;99.90;;;;;;5084040;28;20468;-77
2023/09/10 04:38:34;;;;;;;19.67;11.50;;;15.70;99.90;;;;;;5085422;28;20457;-77
2023/09/10 04:40:59;;;;;;;22.10;11.88;;;15.70;99.90;;;;;;5088344;28;20063;-78
2023/09/10 04:43:25;;;;;;;19.48;11.68;;;15.80;99.90;;;;;;5068962;28;20036;-78
2023/09/10 04:45:51;;;;;;;21.17;11.63;;;15.70;99.90;;;;;;5086954;28;20101;-79
2023/09/10 04:48:17;;;;;;;21.10;11.38;;;15.70;99.90;;;;;;5087544;28;20048;-77
2023/09/10 04:50:44;;;;;;;20.83;11.32;;;15.80;99.90;;;;;;5087779;28;20028;-77
2023/09/10 04:53:10;;;;;;;19.67;11.32;;;15.70;99.90;;;;;;5086266;28;20038;-77
2023/09/10 04:55:36;;;;;;;19.85;12.13;;;15.70;99.90;;;;;;5087774;28;20024;-78
2023/09/10 04:58:02;;;;;;;19.65;11.40;;;15.70;99.90;;;;;;5086122;28;20461;-78
2023/09/10 05:00:28;;;;;;;21.02;11.75;;;15.60;99.90;;;;;;5083989;28;20032;-77
2023/09/10 05:02:53;;;;;;;18.88;11.00;;;15.60;99.90;;;;;;5078872;28;20059;-77
2023/09/10 05:05:19;;;;;;;16.63;11.20;;;15.60;99.90;;;;;;5078434;28;20028;-78
2023/09/10 05:07:49;;;;;;;22.20;12.20;;;15.70;99.90;;;;;;5086580;28;20070;-78
2023/09/10 05:10:14;;;;;;;19.90;10.88;;;15.70;99.90;;;;;;5081497;28;20036;-78
2023/09/10 05:12:40;;;;;;;17.08;10.18;;;15.70;99.90;;;;;;5082921;28;20082;-76
2023/09/10 05:15:06;;;;;;;17.58;10.68;;;15.60;99.90;;;;;;5064234;28;20036;-76
2023/09/10 05:17:32;;;;;;;18.50;12.40;;;15.60;99.90;;;;;;5085623;28;20036;-77
2023/09/10 05:19:58;;;;;;;21.25;11.10;;;15.70;99.90;;;;;;5065703;28;20043;-78
2023/09/10 05:22:23;;;;;;;24.20;11.82;;;15.70;99.90;;;;;;5076011;28;20653;-77
2023/09/10 05:24:49;;;;;;;23.00;12.52;;;15.70;99.90;;;;;;5083957;28;20032;-78
2023/09/10 05:27:15;;;;;;;20.23;11.93;;;15.80;99.90;;;;;;5072073;28;20032;-77
2023/09/10 05:29:40;;;;;;;23.50;12.15;;;15.80;99.90;;;;;;5080022;28;20522;-78
2023/09/10 05:32:06;;;;;;;20.73;11.68;;;15.80;99.90;;;;;;5082389;28;20103;-78
2023/09/10 05:34:32;;;;;;;18.60;10.57;;;15.80;99.90;;;;;;5077905;28;20055;-77
2023/09/10 05:36:57;;;;;;;18.35;10.63;;;15.80;99.90;;;;;;5076602;28;20051;-76
2023/09/10 05:39:23;;;;;;;18.75;11.40;;;15.80;99.90;;;;;;5076463;28;20024;-76
2023/09/10 05:41:49;;;;;;;19.40;11.55;;;15.70;99.90;;;;;;5078084;28;20178;-79
2023/09/10 05:44:14;;;;;;;23.48;11.25;;;15.70;99.90;;;;;;5075479;28;20044;-76
2023/09/10 05:46:40;;;;;;;18.73;11.38;;;15.70;99.90;;;;;;5083002;28;20055;-77
2023/09/10 05:49:06;;;;;;;19.35;11.38;;;15.70;99.90;;;;;;5066860;28;20186;-78
2023/09/10 05:51:31;;;;;;;18.13;10.68;;;15.80;99.90;;;;;;5063025;28;20113;-77
2023/09/10 05:53:57;;;;;;;23.83;12.15;;;15.90;99.90;;;;;;5061541;28;20032;-76
2023/09/10 05:56:23;;;;;;;23.30;12.05;;;16.00;99.90;;;;;;5058380;28;20464;-76
2023/09/10 05:58:49;;;;;;;22.35;12.70;;;16.10;99.90;;;;;;5059401;28;20561;-77
2023/09/10 06:01:15;;;;;;;21.40;12.48;;;16.20;99.90;;;;;;5063497;28;20063;-78
2023/09/10 06:03:40;;;;;;;21.13;12.23;;;16.10;99.90;;;;;;5066683;28;20445;-78
2023/09/10 06:06:06;;;;;;;20.35;12.00;;;16.10;99.90;;;;;;5046347;28;20058;-78
2023/09/10 06:08:32;;;;;;;19.05;11.60;;;16.00;99.90;;;;;;5067957;28;20036;-79
2023/09/10 06:10:57;;;;;;;21.65;11.18;;;16.00;99.90;;;;;;5067853;28;20389;-76
2023/09/10 06:13:23;;;;;;;20.15;11.77;;;16.00;99.90;;;;;;5058761;28;20739;-77
2023/09/10 06:15:49;;;;;;;20.15;11.57;;;16.00;99.90;;;;;;5065628;28;20024;-77
2023/09/10 06:18:14;;;;;;;27.20;13.35;;;16.00;99.90;;;;;;5068601;28;20501;-78
2023/09/10 06:20:40;;;;;;;21.67;12.55;;;16.10;99.90;;;;;;5065583;28;20024;-77
2023/09/10 06:23:06;;;;;;;20.65;11.77;;;16.00;99.90;;;;;;5069106;28;20039;-76
2023/09/10 06:25:32;;;;;;;24.98;13.13;;;16.10;99.90;;;;;;5067316;28;20040;-77
2023/09/10 06:27:58;;;;;;;20.33;12.18;;;16.10;99.90;;;;;;5069253;28;20111;-75
2023/09/10 06:30:24;;;;;;;23.17;13.05;;;16.20;99.90;;;;;;5067990;28;20941;-78
2023/09/10 06:32:49;;;;;;;19.42;11.50;;;16.30;99.90;;;;;;5055373;28;20047;-78
2023/09/10 06:35:15;;;;;;;23.77;12.88;;;16.40;99.90;;;;;;5067690;28;20397;-77
2023/09/10 06:37:41;;;;;;;25.13;12.95;;;16.50;99.90;;;;;;5065900;28;20024;-76
2023/09/10 06:40:08;;;;;;;23.55;11.52;;;16.60;99.90;;;;;;5050556;28;20393;-76
2023/09/10 06:42:35;;;;;;;23.33;13.02;;;16.70;99.90;;;;;;5068598;28;20033;-79
2023/09/10 06:45:00;;;;;;;21.08;11.98;;;16.80;99.90;;;;;;5069754;28;20520;-77
2023/09/10 06:47:27;;;;;;;20.25;12.85;;;16.90;99.90;;;;;;5073516;28;20044;-77
2023/09/10 06:49:53;;;;;;;21.42;12.70;;;17.00;99.90;;;;;;5066875;28;20036;-77
2023/09/10 06:52:18;;;;;;;22.55;12.75;;;17.10;99.90;;;;;;5085263;28;20035;-77
2023/09/10 06:54:44;;;;;;;21.95;12.82;;;17.30;99.90;;;;;;5071505;28;20043;-78
2023/09/10 06:57:10;;;;;;;20.63;12.93;;;17.50;99.90;;;;;;5087088;28;20082;-77
2023/09/10 06:59:35;;;;;;;27.45;12.07;;;17.70;99.90;;;;;;5086166;28;20016;-77
2023/09/10 07:02:01;;;;;;;22.27;12.27;;;17.90;99.90;;;;;;5082751;28;20032;-77
2023/09/10 07:04:27;;;;;;;19.77;12.23;;;18.00;99.90;;;;;;5081932;28;20032;-77
2023/09/10 07:06:53;;;;;;;23.23;12.45;;;18.20;99.90;;;;;;5084066;28;20020;-77
2023/09/10 07:09:21;;;;;;;17.85;12.02;;;18.30;99.90;;;;;;5086546;28;20028;-78
2023/09/10 07:11:51;;;;;;;28.17;13.93;;;18.40;99.90;;;;;;5084467;28;20066;-77
2023/09/10 07:14:17;;;;;;;24.10;13.82;;;18.50;99.90;;;;;;5083531;28;20370;-79
2023/09/10 07:16:43;;;;;;;19.85;12.93;;;18.60;99.90;;;;;;5088251;28;20028;-78
2023/09/10 07:19:09;;;;;;;21.17;12.57;;;18.70;99.90;;;;;;5081697;28;20035;-72
2023/09/10 07:21:35;;;;;;;19.40;12.75;;;18.80;99.90;;;;;;5081791;28;20435;-71
2023/09/10 07:24:06;;;;;;;21.10;13.20;;;18.90;99.90;;;;;;5078243;28;20032;-72
2023/09/10 07:26:36;;;;;;;23.63;13.85;;;19.00;99.90;;;;;;5084639;28;20047;-72
2023/09/10 07:29:03;;;;;;;25.55;14.95;;;19.20;99.90;;;;;;5083722;28;20028;-72
2023/09/10 07:31:29;;;;;;;25.52;14.95;;;19.30;99.90;;;;;;5082473;28;20113;-71
2023/09/10 07:33:55;;;;;;;23.85;14.27;;;19.50;99.90;;;;;;5082123;28;20028;-71
2023/09/10 07:36:20;;;;;;;23.80;15.25;;;19.70;99.90;;;;;;5084714;28;20036;-71
2023/09/10 07:38:46;;;;;;;26.98;15.23;;;19.90;99.90;;;;;;5079545;28;20068;-71
2023/09/10 07:41:11;;;;;;;26.50;14.57;;;20.10;99.90;;;;;;5085679;28;20056;-71
2023/09/10 07:43:37;;;;;;;22.92;14.38;;;20.20;99.90;;;;;;5082830;28;20069;-72
2023/09/10 07:46:03;;;;;;;28.45;15.70;;;20.30;99.90;;;;;;5085297;28;20035;-71
2023/09/10 07:48:28;;;;;;;30.08;16.20;;;20.40;99.90;;;;;;5080658;28;20770;-73
2023/09/10 07:50:55;;;;;;;27.02;16.08;;;20.60;99.90;;;;;;5072613;28;20132;-71
2023/09/10 07:53:21;;;;;;;23.35;15.57;;;20.70;99.90;;;;;;5082292;28;20055;-70
2023/09/10 07:55:47;;;;;;;28.73;15.70;;;20.90;99.90;;;;;;5080283;28;20549;-71
2023/09/10 07:58:13;;;;;;;22.02;14.52;;;21.00;99.90;;;;;;5083433;28;20093;-72
2023/09/10 08:00:39;;;;;;;23.80;14.43;;;21.20;99.90;;;;;;5084372;28;20028;-73
2023/09/10 08:03:06;;;;;;;24.48;15.35;;;21.30;99.90;;;;;;5083959;28;20039;-72
2023/09/10 08:05:33;;;;;;;25.33;14.60;;;21.30;99.90;;;;;;5088677;28;20078;-72
2023/09/10 08:08:03;;;;;;;25.90;14.95;;;21.40;99.90;;;;;;5087700;28;20016;-71
2023/09/10 08:10:33;;;;;;;24.65;14.90;;;21.40;99.90;;;;;;5084174;28;20032;-70
2023/09/10 08:13:00;;;;;;;24.30;15.80;;;21.50;99.90;;;;;;5078623;28;20036;-72
2023/09/10 08:15:26;;;;;;;27.92;14.23;;;21.70;99.90;;;;;;5087246;28;20035;-71
2023/09/10 08:17:55;;;;;;;26.45;14.77;;;21.80;99.90;;;;;;5084812;28;20036;-72
2023/09/10 08:20:21;;;;;;;24.88;14.38;;;22.00;99.90;;;;;;5085203;28;20126;-70
2023/09/10 08:22:58;;;;;;;29.65;16.10;;;22.10;99.90;;;;;;5086508;28;20106;-72
2023/09/10 08:25:24;;;;;;;27.00;15.00;;;22.30;99.90;;;;;;5055726;28;20150;-71
2023/09/10 08:27:50;;;;;;;28.98;15.55;;;22.60;99.90;;;;;;5061041;28;20465;-72
2023/09/10 08:30:15;;;;;;;24.65;14.15;;;22.60;99.90;;;;;;5066779;28;20024;-72
2023/09/10 08:32:43;;;;;;;25.55;14.95;;;22.60;99.90;;;;;;5087630;28;20082;-73
2023/09/10 08:35:09;;;;;;;27.45;15.43;;;22.50;99.90;;;;;;5087899;28;20056;-72
2023/09/10 08:37:34;;;;;;;26.20;15.10;;;22.40;99.90;;;;;;5087942;28;20078;-71
2023/09/10 08:40:00;;;;;;;21.17;15.18;;;22.30;99.90;;;;;;5084071;28;20032;-72
2023/09/10 08:43:04;;;;;;;25.27;15.90;;;22.30;99.90;;;;;;5088735;28;20743;-72
2023/09/10 08:45:30;;;;;;;31.25;15.80;;;22.40;99.90;;;;;;5050799;28;20120;-72
2023/09/10 08:48:00;;;;;;;23.88;15.38;;;22.60;99.90;;;;;;5067617;28;20765;-72
2023/09/10 08:50:27;;;;;;;24.70;15.07;;;22.80;99.90;;;;;;5084536;28;20028;-71
2023/09/10 08:52:53;;;;;;;28.25;15.70;;;23.00;99.90;;;;;;5085337;28;20031;-72
2023/09/10 08:55:19;;;;;;;28.63;14.80;;;23.30;99.90;;;;;;5088533;28;20468;-71
2023/09/10 08:57:46;;;;;;;24.17;14.98;;;23.50;99.90;;;;;;5087454;28;20038;-73
2023/09/10 09:00:12;;;;;;;28.00;14.75;;;23.60;99.90;;;;;;5085071;28;20089;-71
2023/09/10 09:02:43;;;;;;;28.17;14.63;;;23.70;99.90;;;;;;5087451;28;20044;-70
2023/09/10 09:05:09;;;;;;;25.27;14.98;;;23.80;99.90;;;;;;5088264;28;20500;-72
2023/09/10 09:07:54;;;;;;;22.08;13.60;;;24.00;99.90;;;;;;5086615;28;20058;-72
2023/09/10 09:10:28;;;;;;;22.88;14.80;;;24.10;99.90;;;;;;5082132;28;20035;-71
2023/09/10 09:13:01;;;;;;;23.95;14.57;;;24.30;99.90;;;;;;5084874;28;20040;-72
2023/09/10 09:15:27;;;;;;;28.00;14.80;;;24.40;99.90;;;;;;5087965;28;20032;-72
2023/09/10 09:17:56;;;;;;;21.30;14.02;;;24.60;99.90;;;;;;5087650;28;20502;-72
2023/09/10 09:20:24;;;;;;;23.98;13.77;;;24.70;99.90;;;;;;5087718;28;20484;-71
2023/09/10 09:22:56;;;;;;;26.90;14.90;;;24.70;99.90;;;;;;5090195;28;20036;-71
2023/09/10 09:25:22;;;;;;;19.77;13.57;;;24.70;99.90;;;;;;5091079;28;20036;-71
2023/09/10 09:27:49;;;;;;;25.67;14.00;;;24.70;99.90;;;;;;5090424;28;20456;-72
2023/09/10 09:30:15;;;;;;;19.98;13.05;;;25.00;99.90;;;;;;5089391;28;20099;-73
2023/09/10 09:32:41;;;;;;;23.40;15.23;;;25.20;99.90;;;;;;5089658;28;20116;-72
2023/09/10 09:35:10;;;;;;;29.50;15.60;;;25.30;99.90;;;;;;5089704;28;20067;-72
2023/09/10 09:37:36;;;;;;;33.67;14.50;;;25.50;99.90;;;;;;5088357;28;20024;-71
2023/09/10 09:40:03;;;;;;;30.88;14.77;;;25.60;99.90;;;;;;5090253;28;20035;-71
2023/09/10 09:42:30;;;;;;;19.35;13.20;;;25.60;99.90;;;;;;5091564;28;20036;-71
2023/09/10 09:44:57;;;;;;;25.85;14.73;;;25.80;99.90;;;;;;5087309;28;20079;-71
2023/09/10 09:47:23;;;;;;;22.45;15.25;;;25.90;99.90;;;;;;5073603;28;20148;-71
2023/09/10 09:49:49;;;;;;;27.75;15.48;;;26.00;99.90;;;;;;5077620;28;20028;-72
2023/09/10 09:52:21;;;;;;;24.70;15.32;;;26.00;99.90;;;;;;5090213;28;20062;-72
2023/09/10 09:54:49;;;;;;;20.60;13.93;;;26.00;99.90;;;;;;5088876;28;20465;-74
2023/09/10 09:57:16;;;;;;;30.15;14.95;;;26.20;99.90;;;;;;5089597;28;20087;-71
2023/09/10 09:59:43;;;;;;;24.70;14.60;;;26.30;99.90;;;;;;5087763;28;20137;-71
2023/09/10 10:02:15;;;;;;;22.73;15.73;;;26.60;99.90;;;;;;5088751;28;20032;-70
2023/09/10 10:04:42;;;;;;;23.80;14.93;;;26.60;99.90;;;;;;5090057;28;20040;-69
2023/09/10 10:07:09;;;;;;;27.92;14.55;;;26.60;99.90;;;;;;5090041;28;20016;-70
2023/09/10 10:09:36;;;;;;;23.52;14.85;;;26.70;99.90;;;;;;5089498;28;20028;-70
2023/09/10 10:12:04;;;;;;;22.02;14.32;;;26.80;99.90;;;;;;5082110;28;20048;-70
2023/09/10 10:14:34;;;;;;;24.75;15.75;;;26.90;99.90;;;;;;5083690;28;20028;-71
2023/09/10 10:17:01;;;;;;;22.00;14.45;;;27.00;99.90;;;;;;5076451;28;20543;-71
2023/09/10 10:19:31;;;;;;;20.35;14.02;;;27.00;99.90;;;;;;5088581;28;20044;-71
2023/09/10 10:21:57;;;;;;;21.35;15.20;;;27.00;99.90;;;;;;5085391;28;20059;-70
2023/09/10 10:24:23;;;;;;;26.92;14.57;;;27.10;99.90;;;;;;5081104;28;20044;-73
2023/09/10 10:26:51;;;;;;;21.90;14.85;;;27.20;99.90;;;;;;5080722;28;20027;-73
2023/09/10 10:29:21;;;;;;;21.48;14.35;;;27.20;99.90;;;;;;5082554;28;20131;-70
2023/09/10 10:31:55;;;;;;;21.63;14.48;;;27.30;99.90;;;;;;5086456;28;20042;-71
2023/09/10 10:34:24;;;;;;;24.73;14.48;;;27.30;99.90;;;;;;5084163;28;20067;-72
2023/09/10 10:37:01;;;;;;;22.38;14.50;;;27.50;99.90;;;;;;5087029;28;20055;-72
2023/09/10 10:39:52;;;;;;;26.42;15.10;;;27.60;99.90;;;;;;5083986;28;20036;-71
2023/09/10 10:42:24;;;;;;;22.65;14.15;;;27.60;99.90;;;;;;5074309;28;20046;-71
2023/09/10 10:44:52;;;;;;;21.75;15.02;;;27.90;99.90;;;;;;5084514;28;20103;-72
2023/09/10 10:47:22;;;;;;;21.35;14.90;;;27.90;99.90;;;;;;5084131;28;20504;-72
2023/09/10 10:49:54;;;;;;;21.25;13.85;;;28.00;99.90;;;;;;5083838;28;20024;-74
2023/09/10 10:52:30;;;;;;;24.77;13.65;;;28.30;99.90;;;;;;5084068;28;20035;-71
2023/09/10 10:54:56;;;;;;;20.90;13.55;;;28.60;99.90;;;;;;5082274;28;20036;-74
2023/09/10 10:57:24;;;;;;;20.83;13.75;;;28.50;99.90;;;;;;5084121;28;20158;-73
2023/09/10 10:59:50;;;;;;;27.13;15.43;;;28.50;99.90;;;;;;5086485;28;20190;-71
2023/09/10 11:02:23;;;;;;;21.60;14.45;;;28.50;99.90;;;;;;5077216;28;20035;-72
2023/09/10 11:04:55;;;;;;;21.23;14.23;;;28.60;99.90;;;;;;5084293;28;20024;-74
2023/09/10 11:07:22;;;;;;;21.58;14.63;;;28.80;99.90;;;;;;5084580;28;20101;-71
2023/09/10 11:09:48;;;;;;;26.55;14.02;;;28.80;99.90;;;;;;5088671;28;20036;-72
2023/09/10 11:12:14;;;;;;;20.95;14.50;;;28.60;99.90;;;;;;5087513;28;20035;-72
2023/09/10 11:14:58;;;;;;;27.17;14.32;;;28.60;99.90;;;;;;5087794;28;20054;-72
2023/09/10 11:17:29;;;;;;;28.77;13.15;;;28.60;99.90;;;;;;5090970;28;20028;-71
2023/09/10 11:19:55;;;;;;;18.40;13.80;;;29.00;99.90;;;;;;5086640;28;20047;-71
2023/09/10 11:22:21;;;;;;;17.15;13.18;;;29.20;99.90;;;;;;5088057;28;20040;-71
2023/09/10 11:25:00;;;;;;;20.70;13.48;;;29.00;99.90;;;;;;5086226;28;20557;-71
2023/09/10 11:27:27;;;;;;;21.87;13.10;;;29.10;99.90;;;;;;5086478;28;20050;-71
2023/09/10 11:30:07;;;;;;;19.17;13.13;;;29.10;99.90;;;;;;5087843;28;20029;-73
2023/09/10 11:32:33;;;;;;;19.05;13.60;;;29.20;99.90;;;;;;5072819;28;20062;-71
2023/09/10 11:35:31;;;;;;;20.77;12.52;;;29.30;99.90;;;;;;5087252;28;20036;-71
2023/09/10 11:37:57;;;;;;;21.08;13.05;;;29.60;99.90;;;;;;5041165;28;20044;-72
2023/09/10 11:40:24;;;;;;;24.05;13.75;;;29.90;99.90;;;;;;5089949;28;20031;-71
2023/09/10 11:42:50;;;;;;;20.05;12.85;;;29.60;99.90;;;;;;5089060;28;20036;-71
2023/09/10 11:45:18;;;;;;;21.17;13.05;;;29.50;99.90;;;;;;5087002;28;20039;-71
2023/09/10 11:47:46;;;;;;;22.58;12.88;;;29.60;99.90;;;;;;5088858;28;20094;-71
2023/09/10 11:50:13;;;;;;;18.75;13.52;;;29.70;99.90;;;;;;5088626;28;20657;-71
2023/09/10 11:52:40;;;;;;;19.70;12.32;;;30.00;99.90;;;;;;5081848;28;20158;-71
2023/09/10 11:55:09;;;;;;;20.73;12.80;;;30.20;99.90;;;;;;5087697;28;20024;-70
2023/09/10 11:57:35;;;;;;;22.30;12.75;;;29.80;99.90;;;;;;5089655;28;20063;-72
2023/09/10 12:00:01;;;;;;;20.70;12.77;;;29.70;99.90;;;;;;5086985;28;20032;-72
2023/09/10 12:02:27;;;;;;;19.10;12.07;;;29.60;99.90;;;;;;5087472;28;20123;-72
2023/09/10 12:04:52;;;;;;;19.30;12.02;;;29.50;99.90;;;;;;5087897;28;20115;-74
2023/09/10 12:07:19;;;;;;;20.45;13.00;;;29.80;99.90;;;;;;5086946;28;20491;-70
2023/09/10 12:09:45;;;;;;;18.52;13.30;;;29.90;99.90;;;;;;5085800;28;20039;-71
2023/09/10 12:12:23;;;;;;;17.05;13.10;;;29.70;99.90;;;;;;5086421;28;20032;-70
2023/09/10 12:14:49;;;;;;;24.30;13.43;;;29.70;99.90;;;;;;5085413;28;20028;-71
2023/09/10 12:17:15;;;;;;;17.50;12.50;;;30.10;99.90;;;;;;5086837;28;20039;-70
2023/09/10 12:19:41;;;;;;;15.43;12.20;;;30.40;99.90;;;;;;5088868;28;20039;-71
2023/09/10 12:22:09;;;;;;;16.00;12.05;;;30.80;99.90;;;;;;5088424;28;20376;-71
2023/09/10 12:24:41;;;;;;;18.92;12.30;;;31.10;99.90;;;;;;5088348;28;20396;-71
2023/09/10 12:27:09;;;;;;;20.90;11.93;;;31.40;99.90;;;;;;5084116;28;20036;-72
2023/09/10 12:29:35;;;;;;;13.80;11.30;;;31.30;99.90;;;;;;5085816;28;20039;-71